createdAt,value
2023-04-10T00:07:43.474Z,99404.31
2023-04-10T00:17:55.329Z,99396.95
2023-04-10T00:28:03.026Z,99391.52
2023-04-10T00:38:10.091Z,99387.95
2023-04-10T00:48:17.737Z,99376.70
2023-04-10T00:58:26.438Z,99378.71
2023-04-10T01:08:31.564Z,99377.30
2023-04-10T01:18:45.717Z,99384.51
2023-04-10T01:29:00.671Z,99385.77
2023-04-10T01:39:09.601Z,99391.85
2023-04-10T01:49:17.627Z,99384.27
2023-04-10T01:59:25.116Z,99379.17
2023-04-10T02:09:29.983Z,99376.23
2023-04-10T02:19:39.207Z,99376.25
2023-04-10T02:29:46.200Z,99374.71
2023-04-10T02:39:54.766Z,99377.33
2023-04-10T02:50:01.793Z,99378.95
2023-04-10T03:00:11.134Z,99387.10
2023-04-10T03:10:16.976Z,99391.50
2023-04-10T03:20:23.139Z,99390.81
2023-04-10T03:30:30.488Z,99396.25
2023-04-10T03:40:37.956Z,99401.35
2023-04-10T03:50:45.402Z,99400.39
2023-04-10T04:00:52.466Z,99388.73
2023-04-10T04:10:59.565Z,99395.39
2023-04-10T04:21:05.452Z,99392.84
2023-04-10T04:31:12.623Z,99404.85
2023-04-10T04:41:20.621Z,99414.79
2023-04-10T04:51:27.331Z,99421.92
2023-04-10T05:01:34.796Z,99423.36
2023-04-10T05:11:41.152Z,99435.47
2023-04-10T05:21:48.251Z,99440.79
2023-04-10T05:31:55.499Z,99449.67
2023-04-10T05:42:02.061Z,99463.88
2023-04-10T05:52:09.061Z,99464.17
2023-04-10T06:02:16.745Z,99468.09
2023-04-10T06:12:24.172Z,99466.52
2023-04-10T06:22:33.047Z,99457.36
2023-04-10T06:32:40.649Z,99462.06
2023-04-10T06:42:48.183Z,99459.65
2023-04-10T06:52:56.623Z,99454.30
2023-04-10T07:03:04.179Z,99453.84
2023-04-10T07:13:12.106Z,99458.15
2023-04-10T07:23:20.201Z,99470.39
2023-04-10T07:33:27.868Z,99468.14
2023-04-10T07:53:42.181Z,99453.96
2023-04-10T08:03:49.702Z,99443.28
2023-04-10T08:13:58.941Z,99441.45
2023-04-10T08:24:07.734Z,99430.41
2023-04-10T08:34:15.170Z,99429.49
2023-04-10T08:44:19.954Z,99435.02
2023-04-10T08:54:26.157Z,99438.38
2023-04-10T09:04:32.476Z,99447.14
2023-04-10T09:14:42.205Z,99448.80
2023-04-10T09:24:48.698Z,99445.73
2023-04-10T09:34:53.706Z,99437.56
2023-04-10T09:45:02.044Z,99434.11
2023-04-10T09:55:18.379Z,99428.27
2023-04-10T10:05:26.124Z,99417.45
2023-04-10T10:15:31.407Z,99407.66
2023-04-10T10:25:37.913Z,99397.20
2023-04-10T10:35:45.658Z,99390.77
2023-04-10T10:45:50.895Z,99379.48
2023-04-10T10:55:58.032Z,99374.73
2023-04-10T11:06:07.161Z,99374.41
2023-04-10T11:16:14.531Z,99370.06
2023-04-10T11:26:38.535Z,99351.03
2023-04-10T11:36:46.794Z,99335.23
2023-04-10T11:46:54.558Z,99323.56
2023-04-10T11:56:59.835Z,99306.08
2023-04-10T12:07:06.510Z,99292.00
2023-04-10T12:17:15.012Z,99274.27
2023-04-10T12:27:23.772Z,99263.30
2023-04-10T12:37:49.162Z,99244.25
2023-04-10T12:47:56.588Z,99235.57
2023-04-10T12:58:18.309Z,99222.80
2023-04-10T13:08:26.331Z,99204.55
2023-04-10T13:18:35.636Z,99189.69
2023-04-10T13:28:43.797Z,99177.73
2023-04-10T13:48:58.085Z,99153.77
2023-04-10T13:59:03.821Z,99147.02
2023-04-10T14:19:16.731Z,99131.87
2023-04-10T14:29:33.084Z,99121.52
2023-04-10T14:39:42.772Z,99111.50
2023-04-10T14:49:50.024Z,99105.96
2023-04-10T14:59:57.052Z,99097.53
2023-04-10T15:10:04.544Z,99094.13
2023-04-10T15:20:14.210Z,99086.66
2023-04-10T15:30:21.344Z,99077.30
2023-04-10T15:40:29.481Z,99058.41
2023-04-10T15:50:35.403Z,99053.94
2023-04-10T16:00:42.534Z,99050.58
2023-04-10T16:10:49.701Z,99049.63
2023-04-10T16:20:56.811Z,99045.69
2023-04-10T16:31:04.959Z,99043.14
2023-04-10T16:41:12.717Z,99043.95
2023-04-10T16:51:20.861Z,99044.83
2023-04-10T17:01:29.344Z,99035.77
2023-04-10T17:11:35.484Z,99030.02
2023-04-10T17:21:42.524Z,99026.80
2023-04-10T17:31:49.683Z,99024.98
2023-04-10T17:41:56.391Z,99025.30
2023-04-10T17:52:04.238Z,99037.14
2023-04-10T18:02:11.446Z,99037.26
2023-04-10T18:12:18.650Z,99041.73
2023-04-10T18:22:29.409Z,99073.45
2023-04-10T18:32:37.116Z,99066.77
2023-04-10T18:42:44.352Z,99055.12
2023-04-10T18:52:51.468Z,99050.84
2023-04-10T19:02:58.782Z,99041.04
2023-04-10T19:13:06.383Z,99026.77
2023-04-10T19:33:20.265Z,99003.08
2023-04-10T19:43:27.455Z,98995.83
2023-04-10T19:53:34.781Z,98995.62
2023-04-10T20:03:42.496Z,98995.21
2023-04-10T20:13:49.809Z,99001.16
2023-04-10T20:23:56.343Z,98996.52
2023-04-10T20:34:03.412Z,98989.73
2023-04-10T20:44:10.453Z,98981.95
2023-04-10T20:54:19.174Z,98968.72
2023-04-10T21:04:26.447Z,98958.33
2023-04-10T21:14:35.997Z,98941.52
2023-04-10T21:24:43.127Z,98938.73
2023-04-10T21:34:50.394Z,98931.39
2023-04-10T21:44:57.347Z,98922.52
2023-04-10T21:55:06.186Z,98907.91
2023-04-10T22:05:13.699Z,98901.17
2023-04-10T22:15:21.489Z,98885.55
2023-04-10T22:25:28.712Z,98873.09
2023-04-10T22:35:36.116Z,98863.85
2023-04-10T22:45:42.654Z,98846.58
2023-04-10T22:55:49.864Z,98834.25
2023-04-10T23:05:56.864Z,98828.06
2023-04-10T23:16:03.907Z,98815.31
2023-04-10T23:26:11.645Z,98799.05
2023-04-10T23:36:18.663Z,98793.40
2023-04-10T23:46:25.905Z,98773.71
2023-04-10T23:56:33.231Z,98753.63
